createdAt,value
2019-04-05T00:01:37.226Z,7.83
2019-04-05T00:04:05.453Z,7.72
2019-04-05T00:06:35.038Z,8.65
2019-04-05T00:09:04.322Z,7.62
2019-04-05T00:11:32.548Z,7.92
2019-04-05T00:14:00.765Z,8.00
2019-04-05T00:16:29.087Z,7.47
2019-04-05T00:18:57.306Z,8.98
2019-04-05T00:21:25.517Z,7.78
2019-04-05T00:23:53.747Z,7.87
2019-04-05T00:26:21.958Z,8.73
2019-04-05T00:28:51.789Z,7.75
2019-04-05T00:31:20.283Z,7.42
2019-04-05T00:33:48.543Z,7.72
2019-04-05T00:36:16.830Z,8.05
2019-04-05T00:38:45.059Z,8.25
2019-04-05T00:41:13.328Z,8.05
2019-04-05T00:43:41.542Z,8.63
2019-04-05T00:46:09.783Z,8.75
2019-04-05T00:48:38.002Z,8.50
2019-04-05T00:51:06.231Z,8.53
2019-04-05T00:53:34.454Z,8.73
2019-04-05T00:56:02.678Z,8.80
2019-04-05T00:58:30.901Z,9.10
2019-04-05T01:01:01.170Z,7.65
2019-04-05T01:03:29.804Z,7.47
2019-04-05T01:05:58.025Z,8.48
2019-04-05T01:08:26.505Z,8.30
2019-04-05T01:10:54.720Z,8.00
2019-04-05T01:13:22.944Z,7.80
2019-04-05T01:15:51.165Z,8.38
2019-04-05T01:18:19.408Z,8.50
2019-04-05T01:20:49.002Z,9.45
2019-04-05T01:23:17.243Z,8.23
2019-04-05T01:25:45.930Z,9.18
2019-04-05T01:28:14.324Z,9.00
2019-04-05T01:30:42.546Z,8.88
2019-04-05T01:33:10.821Z,8.13
2019-04-05T01:35:39.065Z,9.25
2019-04-05T01:38:07.284Z,9.45
2019-04-05T01:40:35.515Z,8.30
2019-04-05T01:43:03.725Z,9.18
2019-04-05T01:45:31.984Z,8.68
2019-04-05T01:48:00.193Z,8.15
2019-04-05T01:50:28.417Z,8.65
2019-04-05T01:52:56.629Z,8.40
2019-04-05T01:55:24.897Z,8.40
2019-04-05T01:57:53.110Z,8.48
2019-04-05T02:00:21.335Z,8.63
2019-04-05T02:02:49.548Z,8.85
2019-04-05T02:05:17.814Z,8.70
2019-04-05T02:07:46.059Z,9.30
2019-04-05T02:10:14.308Z,8.80
2019-04-05T02:12:42.514Z,8.53
2019-04-05T02:15:12.398Z,8.78
2019-04-05T02:17:40.631Z,8.33
2019-04-05T02:20:08.883Z,9.05
2019-04-05T02:22:37.080Z,8.68
2019-04-05T02:25:06.207Z,8.25
2019-04-05T02:27:34.514Z,8.38
2019-04-05T02:30:02.735Z,8.88
2019-04-05T02:32:30.972Z,8.48
2019-04-05T02:34:59.190Z,8.48
2019-04-05T02:37:27.419Z,8.30
2019-04-05T02:39:55.987Z,8.10
2019-04-05T02:42:24.217Z,7.55
2019-04-05T02:44:52.437Z,7.97
2019-04-05T02:47:20.671Z,8.58
2019-04-05T02:49:48.894Z,9.48
2019-04-05T02:52:17.631Z,8.43
2019-04-05T02:54:45.849Z,8.80
2019-04-05T02:57:14.068Z,8.40
2019-04-05T02:59:42.337Z,8.38
2019-04-05T03:02:12.173Z,7.70
2019-04-05T03:04:40.391Z,7.78
2019-04-05T03:07:09.023Z,8.83
2019-04-05T03:09:37.239Z,9.08
2019-04-05T03:12:05.639Z,8.23
2019-04-05T03:14:34.215Z,8.75
2019-04-05T03:17:02.446Z,9.20
2019-04-05T03:19:31.513Z,8.75
2019-04-05T03:22:01.651Z,9.78
2019-04-05T03:24:30.040Z,8.80
2019-04-05T03:27:00.607Z,9.73
2019-04-05T03:29:28.818Z,10.25
2019-04-05T03:31:57.041Z,9.20
2019-04-05T03:34:25.288Z,8.85
2019-04-05T03:36:53.571Z,8.78
2019-04-05T03:39:23.047Z,8.78
2019-04-05T03:41:52.310Z,9.05
2019-04-05T03:44:22.975Z,9.55
2019-04-05T03:46:56.739Z,9.70
2019-04-05T03:49:20.811Z,8.45
2019-04-05T03:51:49.048Z,8.93
2019-04-05T03:54:17.265Z,9.08
2019-04-05T03:56:45.467Z,8.78
2019-04-05T03:59:13.701Z,9.40
2019-04-05T04:01:41.931Z,9.15
2019-04-05T04:04:10.243Z,8.08
2019-04-05T04:06:38.555Z,9.45
2019-04-05T04:09:06.784Z,10.10
2019-04-05T04:11:35.200Z,10.03
2019-04-05T04:14:03.429Z,10.05
2019-04-05T04:16:31.648Z,8.83
2019-04-05T04:19:00.341Z,10.05
2019-04-05T04:21:31.818Z,9.98
2019-04-05T04:24:00.038Z,9.70
2019-04-05T04:26:28.270Z,9.58
2019-04-05T04:28:56.777Z,9.55
2019-04-05T04:31:25.025Z,9.30
2019-04-05T04:33:53.327Z,9.15
2019-04-05T04:36:21.619Z,10.53
2019-04-05T04:38:50.276Z,9.90
2019-04-05T04:41:18.504Z,9.75
2019-04-05T04:43:46.780Z,9.88
2019-04-05T04:46:15.036Z,9.75
2019-04-05T04:48:43.246Z,10.45
2019-04-05T04:51:11.475Z,10.75
2019-04-05T04:53:39.685Z,10.28
2019-04-05T04:56:07.974Z,10.90
2019-04-05T04:58:36.332Z,9.78
2019-04-05T05:01:04.636Z,10.30
2019-04-05T05:03:32.896Z,10.18
2019-04-05T05:06:01.217Z,9.88
2019-04-05T05:08:29.442Z,10.32
2019-04-05T05:10:57.665Z,9.48
2019-04-05T05:13:25.947Z,10.72
2019-04-05T05:15:54.206Z,9.70
2019-04-05T05:18:22.455Z,15.20
2019-04-05T05:20:50.674Z,10.95
2019-04-05T05:23:18.972Z,10.98
2019-04-05T05:25:47.255Z,10.35
2019-04-05T05:28:15.602Z,11.05
2019-04-05T05:30:43.905Z,10.75
2019-04-05T05:33:12.162Z,11.50
2019-04-05T05:35:40.421Z,12.10
2019-04-05T05:38:08.661Z,11.03
2019-04-05T05:40:36.882Z,12.58
2019-04-05T05:43:05.102Z,11.05
2019-04-05T05:45:33.336Z,11.20
2019-04-05T05:48:01.552Z,13.35
2019-04-05T05:50:29.784Z,15.75
2019-04-05T05:52:58.039Z,11.93
2019-04-05T05:55:26.254Z,12.10
2019-04-05T05:57:57.210Z,11.45
2019-04-05T06:00:24.831Z,11.15
2019-04-05T06:02:53.057Z,12.00
2019-04-05T06:05:21.299Z,11.95
2019-04-05T06:07:49.542Z,11.40
2019-04-05T06:10:17.770Z,12.13
2019-04-05T06:12:46.817Z,12.70
2019-04-05T06:15:16.847Z,12.98
2019-04-05T06:17:45.056Z,11.03
2019-04-05T06:20:14.947Z,11.80
2019-04-05T06:22:43.157Z,12.45
2019-04-05T06:25:11.409Z,12.50
2019-04-05T06:27:39.680Z,12.53
2019-04-05T06:30:07.907Z,13.65
2019-04-05T06:32:36.166Z,13.05
2019-04-05T06:35:06.210Z,12.03
2019-04-05T06:37:34.426Z,12.47
2019-04-05T06:40:02.909Z,14.33
2019-04-05T06:42:31.167Z,13.00
2019-04-05T06:44:59.408Z,12.25
2019-04-05T06:47:27.633Z,12.78
2019-04-05T06:49:55.890Z,12.13
2019-04-05T06:52:24.119Z,12.65
2019-04-05T06:54:52.357Z,13.30
2019-04-05T06:57:20.571Z,13.88
2019-04-05T06:59:48.796Z,12.95
2019-04-05T07:02:18.488Z,13.22
2019-04-05T07:04:46.951Z,13.45
2019-04-05T07:07:17.744Z,12.82
2019-04-05T07:09:45.145Z,13.05
2019-04-05T07:12:13.413Z,18.92
2019-04-05T07:14:41.628Z,17.55
2019-04-05T07:17:09.851Z,13.05
2019-04-05T07:19:38.161Z,13.85
2019-04-05T07:22:06.410Z,14.18
2019-04-05T07:24:34.624Z,13.35
2019-04-05T07:27:02.845Z,14.30
2019-04-05T07:29:31.076Z,12.25
2019-04-05T07:31:59.311Z,13.32
2019-04-05T07:34:27.526Z,13.55
2019-04-05T07:36:55.799Z,13.98
2019-04-05T07:39:24.701Z,14.03
2019-04-05T07:41:52.960Z,14.75
2019-04-05T07:44:21.172Z,15.15
2019-04-05T07:46:49.394Z,12.40
2019-04-05T07:49:17.609Z,13.43
2019-04-05T07:51:45.840Z,14.50
2019-04-05T07:54:14.075Z,14.25
2019-04-05T07:56:42.310Z,12.18
2019-04-05T07:59:10.530Z,15.03
2019-04-05T08:01:38.762Z,13.70
2019-04-05T08:04:06.984Z,15.58
2019-04-05T08:06:35.223Z,14.87
2019-04-05T08:09:06.539Z,14.47
2019-04-05T08:11:34.771Z,12.80
2019-04-05T08:14:02.992Z,14.23
2019-04-05T08:16:31.215Z,12.43
2019-04-05T08:18:59.479Z,13.00
2019-04-05T08:21:27.693Z,12.75
2019-04-05T08:23:56.947Z,13.45
2019-04-05T08:26:25.199Z,13.45
2019-04-05T08:28:53.414Z,13.62
2019-04-05T08:31:21.684Z,12.55
2019-04-05T08:33:49.936Z,11.83
2019-04-05T08:36:18.146Z,11.55
2019-04-05T08:38:46.379Z,11.18
2019-04-05T08:41:14.594Z,13.18
2019-04-05T08:44:02.255Z,12.47
2019-04-05T08:46:30.483Z,13.15
2019-04-05T08:49:10.124Z,12.45
2019-04-05T08:51:28.642Z,12.45
2019-04-05T08:53:56.861Z,12.70
2019-04-05T08:56:25.094Z,11.53
2019-04-05T08:58:53.379Z,11.60
2019-04-05T09:01:21.631Z,11.05
2019-04-05T09:03:49.955Z,11.33
2019-04-05T09:06:18.255Z,11.48
2019-04-05T09:08:46.517Z,11.08
2019-04-05T09:11:14.808Z,10.88
2019-04-05T09:13:43.040Z,10.90
2019-04-05T09:16:11.864Z,9.48
2019-04-05T09:18:40.254Z,9.95
2019-04-05T09:21:10.146Z,10.95
2019-04-05T09:23:38.527Z,9.63
2019-04-05T09:26:06.741Z,10.72
2019-04-05T09:28:34.979Z,11.85
2019-04-05T09:31:03.255Z,9.85
2019-04-05T09:33:31.469Z,10.18
2019-04-05T09:35:59.712Z,9.73
2019-04-05T09:38:27.930Z,9.38
2019-04-05T09:40:56.194Z,9.75
2019-04-05T09:43:24.455Z,10.08
2019-04-05T09:45:52.740Z,9.13
2019-04-05T09:48:20.966Z,8.85
2019-04-05T09:50:49.182Z,8.93
2019-04-05T09:53:17.423Z,8.73
2019-04-05T09:55:45.668Z,8.28
2019-04-05T09:58:13.893Z,9.58
2019-04-05T10:00:42.104Z,9.60
2019-04-05T10:03:10.347Z,8.98
2019-04-05T10:05:38.550Z,9.20
2019-04-05T10:08:06.773Z,9.15
2019-04-05T10:10:35.003Z,9.25
2019-04-05T10:13:03.328Z,10.03
2019-04-05T10:15:31.578Z,10.48
2019-04-05T10:17:59.798Z,9.08
2019-04-05T10:20:28.056Z,8.93
2019-04-05T10:22:56.285Z,10.70
2019-04-05T10:25:24.508Z,11.40
2019-04-05T10:27:52.734Z,10.75
2019-04-05T10:30:20.963Z,10.08
2019-04-05T10:32:49.211Z,9.65
2019-04-05T10:35:17.453Z,9.63
2019-04-05T10:37:45.680Z,9.83
2019-04-05T10:40:13.886Z,9.75
2019-04-05T10:42:42.147Z,10.72
2019-04-05T10:45:11.039Z,10.85
2019-04-05T10:47:39.281Z,11.55
2019-04-05T10:50:08.731Z,10.03
2019-04-05T10:52:37.033Z,10.65
2019-04-05T10:55:05.634Z,10.82
2019-04-05T10:57:33.874Z,10.45
2019-04-05T11:00:02.186Z,11.48
2019-04-05T11:02:30.416Z,12.43
2019-04-05T11:04:58.638Z,10.63
2019-04-05T11:07:26.862Z,11.45
2019-04-05T11:09:55.086Z,10.95
2019-04-05T11:12:25.273Z,11.95
2019-04-05T11:14:53.500Z,10.93
2019-04-05T11:17:21.726Z,12.47
2019-04-05T11:19:49.954Z,11.08
2019-04-05T11:22:20.268Z,10.72
2019-04-05T11:24:48.156Z,10.63
2019-04-05T11:27:16.369Z,11.57
2019-04-05T11:29:44.618Z,12.03
2019-04-05T11:32:12.841Z,11.33
2019-04-05T11:34:41.063Z,11.30
2019-04-05T11:37:09.319Z,12.43
2019-04-05T11:39:37.540Z,10.98
2019-04-05T11:42:06.300Z,12.60
2019-04-05T11:44:34.582Z,11.75
2019-04-05T11:47:03.584Z,13.00
2019-04-05T11:49:31.857Z,12.30
2019-04-05T11:52:00.075Z,12.13
2019-04-05T11:54:28.297Z,12.28
2019-04-05T11:56:56.630Z,12.85
2019-04-05T11:59:24.897Z,11.53
2019-04-05T12:02:11.027Z,13.13
2019-04-05T12:04:39.249Z,12.43
2019-04-05T12:07:07.475Z,12.43
2019-04-05T12:09:35.703Z,11.83
2019-04-05T12:12:03.967Z,12.33
2019-04-05T12:14:32.173Z,12.58
2019-04-05T12:17:00.418Z,12.10
2019-04-05T12:19:28.631Z,12.50
2019-04-05T12:21:56.858Z,11.65
2019-04-05T12:24:25.091Z,11.20
2019-04-05T12:26:53.357Z,12.23
2019-04-05T12:29:21.951Z,11.85
2019-04-05T12:31:53.237Z,11.12
2019-04-05T12:34:22.236Z,10.68
2019-04-05T12:36:50.580Z,11.78
2019-04-05T12:39:20.066Z,11.83
2019-04-05T12:41:48.339Z,12.15
2019-04-05T12:44:16.564Z,11.38
2019-04-05T12:46:45.930Z,11.73
2019-04-05T12:49:15.325Z,10.43
2019-04-05T12:51:46.120Z,11.80
2019-04-05T12:54:14.607Z,12.33
2019-04-05T12:56:42.837Z,12.60
2019-04-05T12:59:11.068Z,12.23
2019-04-05T13:01:39.291Z,11.85
2019-04-05T13:04:07.558Z,11.65
2019-04-05T13:06:35.774Z,11.75
2019-04-05T13:09:06.576Z,11.83
2019-04-05T13:11:35.812Z,10.90
2019-04-05T13:14:04.087Z,11.80
2019-04-05T13:16:32.309Z,11.88
2019-04-05T13:19:01.487Z,13.25
2019-04-05T13:21:32.049Z,11.83
2019-04-05T13:23:59.936Z,11.25
2019-04-05T13:26:28.150Z,12.07
2019-04-05T13:28:56.432Z,11.40
2019-04-05T13:31:24.688Z,12.25
2019-04-05T13:33:55.271Z,12.58
2019-04-05T13:36:22.875Z,11.53
2019-04-05T13:38:54.970Z,11.73
2019-04-05T13:41:40.499Z,12.68
2019-04-05T13:44:08.762Z,11.97
2019-04-05T13:46:39.073Z,12.65
2019-04-05T13:49:10.350Z,12.53
2019-04-05T13:51:36.906Z,12.47
2019-04-05T13:54:05.137Z,13.38
2019-04-05T13:56:33.397Z,12.63
2019-04-05T13:59:01.625Z,12.05
2019-04-05T14:01:29.890Z,12.88
2019-04-05T14:03:58.147Z,13.05
2019-04-05T14:06:26.410Z,13.48
2019-04-05T14:08:54.667Z,13.22
2019-04-05T14:11:25.810Z,11.90
2019-04-05T14:13:52.880Z,12.82
2019-04-05T14:16:21.099Z,12.30
2019-04-05T14:18:49.820Z,12.73
2019-04-05T14:21:20.644Z,13.13
2019-04-05T14:23:48.229Z,13.08
2019-04-05T14:26:16.475Z,12.00
2019-04-05T14:28:44.706Z,12.03
2019-04-05T14:31:12.965Z,12.47
2019-04-05T14:33:41.190Z,12.25
2019-04-05T14:36:09.416Z,12.33
2019-04-05T14:38:37.642Z,12.18
2019-04-05T14:41:05.915Z,11.80
2019-04-05T14:43:37.709Z,11.90
2019-04-05T14:46:05.090Z,13.30
2019-04-05T14:48:33.313Z,11.38
2019-04-05T14:51:03.575Z,11.05
2019-04-05T14:53:32.303Z,12.50
2019-04-05T14:56:01.114Z,11.35
2019-04-05T14:58:29.354Z,12.53
2019-04-05T15:00:57.582Z,11.70
2019-04-05T15:03:25.818Z,11.68
2019-04-05T15:05:54.080Z,11.95
2019-04-05T15:08:22.336Z,11.90
2019-04-05T15:10:51.476Z,12.25
2019-04-05T15:13:19.957Z,13.25
2019-04-05T15:15:48.191Z,11.78
2019-04-05T15:18:19.291Z,12.25
2019-04-05T15:20:46.393Z,11.30
2019-04-05T15:23:14.642Z,11.43
2019-04-05T15:25:42.868Z,12.03
2019-04-05T15:28:11.088Z,12.13
2019-04-05T15:30:39.310Z,12.50
2019-04-05T15:33:07.534Z,12.03
2019-04-05T15:35:35.768Z,13.13
2019-04-05T15:38:03.995Z,12.40
2019-04-05T15:40:32.257Z,12.30
2019-04-05T15:43:00.471Z,11.12
2019-04-05T15:45:28.697Z,12.47
2019-04-05T15:47:56.930Z,12.28
2019-04-05T15:50:25.181Z,13.15
2019-04-05T15:52:53.398Z,12.55
2019-04-05T15:55:21.686Z,12.47
2019-04-05T15:57:49.894Z,14.47
2019-04-05T16:00:20.935Z,15.15
2019-04-05T16:02:49.278Z,14.85
2019-04-05T16:05:17.504Z,14.15
2019-04-05T16:07:45.725Z,13.70
2019-04-05T16:10:13.961Z,14.68
2019-04-05T16:12:42.191Z,15.18
2019-04-05T16:15:11.079Z,14.58
2019-04-05T16:17:39.312Z,15.70
2019-04-05T16:20:09.554Z,15.53
2019-04-05T16:22:37.777Z,15.90
2019-04-05T16:25:07.751Z,16.62
2019-04-05T16:27:36.023Z,14.47
2019-04-05T16:30:05.678Z,16.42
2019-04-05T16:32:33.928Z,16.62
2019-04-05T16:35:02.146Z,17.75
2019-04-05T16:37:30.382Z,17.20
2019-04-05T16:39:58.609Z,16.75
2019-04-05T16:42:26.850Z,17.65
2019-04-05T16:44:55.071Z,18.57
2019-04-05T16:47:23.301Z,16.97
2019-04-05T16:49:51.697Z,16.80
2019-04-05T16:52:19.986Z,17.37
2019-04-05T16:54:48.211Z,17.73
2019-04-05T16:57:35.862Z,17.90
2019-04-05T17:00:06.495Z,16.35
2019-04-05T17:02:34.724Z,15.88
2019-04-05T17:05:02.941Z,15.83
2019-04-05T17:07:31.217Z,16.07
2019-04-05T17:09:59.443Z,16.27
2019-04-05T17:12:27.700Z,16.65
2019-04-05T17:14:55.942Z,15.35
2019-04-05T17:17:24.927Z,16.50
2019-04-05T17:19:53.177Z,15.10
2019-04-05T17:22:21.401Z,15.55
2019-04-05T17:24:49.669Z,15.23
2019-04-05T17:27:17.891Z,15.32
2019-04-05T17:29:46.140Z,15.05
2019-04-05T17:32:14.379Z,14.83
2019-04-05T17:34:42.601Z,15.08
2019-04-05T17:37:10.817Z,15.30
2019-04-05T17:39:39.043Z,14.90
2019-04-05T17:42:07.280Z,15.25
2019-04-05T17:44:35.495Z,15.90
2019-04-05T17:47:04.468Z,16.15
2019-04-05T17:49:32.702Z,14.75
2019-04-05T17:52:01.535Z,14.95
2019-04-05T17:54:29.996Z,14.40
2019-04-05T17:56:58.247Z,16.15
2019-04-05T17:59:26.597Z,15.98
2019-04-05T18:01:55.445Z,17.17
2019-04-05T18:04:23.908Z,15.30
2019-04-05T18:06:52.166Z,17.23
2019-04-05T18:09:20.401Z,15.50
2019-04-05T18:11:49.225Z,14.43
2019-04-05T18:14:17.504Z,15.40
2019-04-05T18:16:45.739Z,16.45
2019-04-05T18:19:13.992Z,17.52
2019-04-05T18:21:42.205Z,17.77
2019-04-05T18:24:10.467Z,29.07
2019-04-05T18:26:38.698Z,22.98
2019-04-05T18:29:07.369Z,19.45
2019-04-05T18:31:35.826Z,18.73
2019-04-05T18:34:04.051Z,18.40
2019-04-05T18:36:32.358Z,17.87
2019-04-05T18:39:00.629Z,18.20
2019-04-05T18:41:28.845Z,19.62
2019-04-05T18:43:57.069Z,18.73
2019-04-05T18:46:25.328Z,18.80
2019-04-05T18:48:53.588Z,18.32
2019-04-05T18:51:22.036Z,17.77
2019-04-05T18:53:50.374Z,17.23
2019-04-05T18:56:18.657Z,19.48
2019-04-05T18:58:46.968Z,18.48
2019-04-05T19:01:15.260Z,16.90
2019-04-05T19:03:45.125Z,18.70
2019-04-05T19:06:13.351Z,18.77
2019-04-05T19:08:42.068Z,18.95
2019-04-05T19:11:10.568Z,18.17
2019-04-05T19:13:38.818Z,19.20
2019-04-05T19:16:07.110Z,20.30
2019-04-05T19:18:35.483Z,19.07
2019-04-05T19:21:03.746Z,20.68
2019-04-05T19:23:31.952Z,19.10
2019-04-05T19:26:01.382Z,19.10
2019-04-05T19:28:29.661Z,19.42
2019-04-05T19:48:30.932Z,19.45
2019-04-05T19:50:59.870Z,17.50
2019-04-05T19:53:28.777Z,17.80
2019-04-05T19:55:56.990Z,17.32
2019-04-05T19:58:25.278Z,18.82
2019-04-05T20:00:56.766Z,24.67
2019-04-05T20:03:25.031Z,28.90
2019-04-05T20:05:53.426Z,21.33
2019-04-05T20:08:21.838Z,29.48
2019-04-05T20:10:50.135Z,26.87
2019-04-05T20:13:18.373Z,24.35
2019-04-05T20:15:49.377Z,20.17
2019-04-05T20:18:17.591Z,20.00
2019-04-05T20:21:05.322Z,20.05
2019-04-05T20:23:33.603Z,22.05
2019-04-05T20:26:02.210Z,21.05
2019-04-05T20:28:30.461Z,18.70
2019-04-05T20:30:58.736Z,18.37
2019-04-05T20:33:26.980Z,19.00
2019-04-05T20:35:55.280Z,18.70
2019-04-05T20:38:23.487Z,17.70
2019-04-05T20:40:51.721Z,19.25
2019-04-05T20:43:20.003Z,19.92
2019-04-05T20:45:48.307Z,20.35
2019-04-05T20:48:16.636Z,21.00
2019-04-05T20:50:45.078Z,18.75
2019-04-05T20:53:13.450Z,18.67
2019-04-05T20:55:41.711Z,18.40
2019-04-05T20:58:09.933Z,17.37
2019-04-05T21:00:38.165Z,17.70
2019-04-05T21:03:06.401Z,18.98
2019-04-05T21:05:34.607Z,21.55
2019-04-05T21:08:02.842Z,18.92
2019-04-05T21:10:31.061Z,20.55
2019-04-05T21:12:59.435Z,19.80
2019-04-05T21:15:47.282Z,19.60
2019-04-05T21:18:15.751Z,20.32
2019-04-05T21:20:44.504Z,19.57
2019-04-05T21:23:13.441Z,19.73
2019-04-05T21:25:41.648Z,20.25
2019-04-05T21:28:09.930Z,19.92
2019-04-05T21:30:38.135Z,18.92
2019-04-05T21:33:06.377Z,20.02
2019-04-05T21:35:34.672Z,19.17
2019-04-05T21:38:02.935Z,18.92
2019-04-05T21:40:33.160Z,18.90
2019-04-05T21:43:03.912Z,18.27
2019-04-05T21:45:32.336Z,17.62
2019-04-05T21:48:00.590Z,17.70
2019-04-05T21:50:28.831Z,16.95
2019-04-05T21:52:57.053Z,18.23
2019-04-05T21:55:25.315Z,20.37
2019-04-05T21:57:54.830Z,18.60
2019-04-05T22:00:26.301Z,18.73
2019-04-05T22:02:54.871Z,18.85
2019-04-05T22:05:23.088Z,18.80
2019-04-05T22:07:51.697Z,18.45
2019-04-05T22:10:20.065Z,16.02
2019-04-05T22:12:48.985Z,16.55
2019-04-05T22:15:19.127Z,15.32
2019-04-05T22:17:47.358Z,17.25
2019-04-05T22:20:15.583Z,17.95
2019-04-05T22:22:43.814Z,21.00
2019-04-05T22:25:12.034Z,19.35
2019-04-05T22:27:41.284Z,20.62
2019-04-05T22:30:09.495Z,19.77
2019-04-05T22:32:37.737Z,20.20
2019-04-05T22:35:05.960Z,18.37
2019-04-05T22:37:35.133Z,19.73
2019-04-05T22:40:05.231Z,18.20
2019-04-05T22:42:33.464Z,21.62
2019-04-05T22:45:01.682Z,20.92
2019-04-05T22:47:30.307Z,19.85
2019-04-05T22:49:58.555Z,20.65
2019-04-05T22:52:26.807Z,20.08
2019-04-05T22:54:55.062Z,18.07
2019-04-05T22:57:23.273Z,19.90
2019-04-05T22:59:51.500Z,18.67
2019-04-05T23:02:19.748Z,18.25
2019-04-05T23:04:49.121Z,18.23
2019-04-05T23:07:17.352Z,18.62
2019-04-05T23:09:45.578Z,19.05
2019-04-05T23:12:13.796Z,18.80
2019-04-05T23:14:42.019Z,17.45
2019-04-05T23:17:10.281Z,19.15
2019-04-05T23:19:38.510Z,18.87
2019-04-05T23:22:06.750Z,17.48
2019-04-05T23:24:34.980Z,21.45
2019-04-05T23:27:03.231Z,20.48
2019-04-05T23:29:31.487Z,19.52
2019-04-05T23:31:59.699Z,20.43
2019-04-05T23:34:28.036Z,20.52
2019-04-05T23:36:56.288Z,19.37
2019-04-05T23:39:24.543Z,17.23
2019-04-05T23:41:52.766Z,18.55
2019-04-05T23:44:21.040Z,19.92
2019-04-05T23:46:49.283Z,20.80
2019-04-05T23:49:17.476Z,20.02
2019-04-05T23:51:45.745Z,20.43
2019-04-05T23:54:14.052Z,18.80
2019-04-05T23:56:42.264Z,19.67
2019-04-05T23:59:10.541Z,18.60
